< < Back
Terminal Aerodrome Forecast


Current Version              Previous Versions:   1  2  3  4  5  6  7  8  9  

Terminal Aerodrome Forecast

672
FTUS42 KMLB 311723
TAFDAB
TAF
KDAB 311723Z 3118/0118 15007KT P6SM VCSH SCT020 BKN090 BKN150
     FM311900 11009KT P6SM VCTS SCT020CB SCT040 OVC150
      TEMPO 3119/3122 2SM TSRA BKN025CB BKN040
     FM010000 16005KT P6SM VCSH SCT020 SCT050 BKN150
     FM011400 19005KT P6SM FEW020 SCT150 BKN250=

Latest METAR

365
SAUS80 KWBC 312100 RRA
MTRDAB
METAR KDAB 312053Z 09007KT 10SM FEW026CB SCT048 SCT060 BKN150 29/24
A3003 RMK AO2 SLP169 CB S-W-NW MOV N CB DSNT S T02940244
55008


USA.gov is the U.S. government's official web portal to all federal, state and local government web resources and services.